Peasleeville, New York
Current Conditions -  °F | °C
As of 4:53 AM on Thursday 23 Oct 2014 (Local Time) from KPBG Reporting Station
Overcast Overcast  
Wind Chill: 36°   Ceiling: 3600
Heat Index: 44°   Visibility: 10mi
Dew Point: 36°   Wind: 20mph
Humidity: 73%   Direction: 350°N
Pressure: 30.04"   Gusts: NA
Location:  44.5605°N, 73.7592°W
Report Text: KPBG 230853Z AUTO 35017KT 10SM OVC036 07/02 A3004 RMK AO2 SLP174 T00670022 56016
Loading
Personal Weather Stations






























Interactive Weather Map
Tropical Storm Tracking
New forecast layout! Learn more

10-Day Weather Forecast

Advertisements
Track Severe Weather on mobile